Banner


 
Basin Summaries
 
  Chemung
  Juniata
  Main Stem Susquehanna
  Potomac
  Upper Susquehanna
  West Branch Susquehanna
 
Reservoir Plots
 
  ALL
  Almond
  Arkport
  Aylesworth
  Bush
  Cowanesque
  Curwensville
  East Sidney
  Hammond
  Indian Rock
  Randolph
  Raystown
  Savage
  Sayers
  Stevenson
  Stillwater
  Tioga
  Whitney Point
 
North Branch Potomac Releases
 
Additional Resources
 
  National Weather Service
  Baltimore District Emergency
    Operations
  Baltimore District Home
 
 
Home

Cohocton River near Campbell, NY
 
Provisional Data Subject to Revision
Campbell
Cohocton River near Campbell, NY
Warning Stage:9.0 feet 
Flood Stage:10.0 feet 
Date (ET) Stage (ft) Flow (cfs)
Feb 29, 2024 10:00 am 4.01  831 
Feb 29, 2024   9:45 am 4.02  838 
Feb 29, 2024   9:30 am 4.02  838 
Feb 29, 2024   9:15 am 4.03  845 
Feb 29, 2024   9:00 am 4.04  853 
Feb 29, 2024   8:45 am 4.05  860 
Feb 29, 2024   8:30 am 4.05  860 
Feb 29, 2024   8:15 am 4.07  874 
Feb 29, 2024   8:00 am 4.08  882 
Feb 29, 2024   7:45 am 4.09  889 
Feb 29, 2024   7:30 am 4.11  904 
Feb 29, 2024   7:15 am 4.11  904 
Feb 29, 2024   7:00 am 4.12  912 
Feb 29, 2024   6:45 am 4.13  919 
Feb 29, 2024   6:30 am 4.14  927 
Feb 29, 2024   6:15 am 4.15  934 
Feb 29, 2024   6:00 am 4.17  949 
Feb 29, 2024   5:45 am 4.17  949 
Feb 29, 2024   5:30 am 4.19  965 
Feb 29, 2024   5:15 am 4.18  957 
Feb 29, 2024   5:00 am 4.19  965 
Feb 29, 2024   4:45 am 4.21  981 
Feb 29, 2024   4:30 am 4.22  989 
Feb 29, 2024   4:15 am 4.22  989 
Feb 29, 2024   4:00 am 4.23  997 
Feb 29, 2024   3:45 am 4.23  997 
Feb 29, 2024   3:30 am 4.26  1021 
Feb 29, 2024   3:15 am 4.25  1013 
Feb 29, 2024   3:00 am 4.27  1029 
Feb 29, 2024   2:45 am 4.27  1029 
Feb 29, 2024   2:30 am 4.28  1037 
Feb 29, 2024   2:15 am 4.28  1037 
Feb 29, 2024   2:00 am 4.29  1045 
Feb 29, 2024   1:45 am 4.30  1053 
Feb 29, 2024   1:30 am 4.30  1053 
Feb 29, 2024   1:15 am 4.31  1062 
Feb 29, 2024   1:00 am 4.31  1062 
Feb 29, 2024 12:45 am 4.31  1062 
Feb 29, 2024 12:30 am 4.32  1070 
Feb 29, 2024 12:15 am 4.32  1070 
Feb 29, 2024 12:00 am 4.32  1070 
Feb 28, 2024 11:45 pm 4.31  1062 
Feb 28, 2024 11:30 pm 4.30  1053 
Feb 28, 2024 11:15 pm 4.27  1029 
Feb 28, 2024 11:00 pm 4.25  1013 
Feb 28, 2024 10:45 pm 4.20  973 
Report Generated Feb 29, 2024, 10:37

NWS Web Info